QFA516 YSSY-YBBN
Flight info
| Callsign | QFA516 |
|---|---|
| Flight time | 1h 24m |
| Altitude | 39000 |
| Route | KEVIN7/16L OLSEM Y193 BANDA H252 BN |
| Aircraft | A332/H-SDE3GHIJ2J3J5M1RVWXY/LB2D1 |
Departure
| Time | 2026-05-05 10:13 |
|---|---|
| Airport | Sydney Kingsford Smith International Airport (YSSY) |
Arrival
| Time | 2026-05-05 11:37 |
|---|---|
| Airport | Brisbane International Airport (YBBN) |
| Time | Latitude | Longitude | Altitude | Speed | Heading |
|---|---|---|---|---|---|
| 2026-05-05 09:21 | -33.93199 | 151.17625 | 37 ft | 0 kts | 85° |
| 2026-05-05 09:57 | -33.93200 | 151.17622 | 37 ft | 0 kts | 85° |
| 2026-05-05 09:58 | -33.93200 | 151.17616 | 37 ft | 2 kts | 85° |
| 2026-05-05 09:58 | -33.93200 | 151.17600 | 37 ft | 2 kts | 99° |
| 2026-05-05 09:59 | -33.93197 | 151.17583 | 37 ft | 2 kts | 111° |
| 2026-05-05 09:59 | -33.93191 | 151.17567 | 37 ft | 2 kts | 123° |
| 2026-05-05 09:59 | -33.93182 | 151.17554 | 37 ft | 2 kts | 136° |
| 2026-05-05 09:59 | -33.93170 | 151.17541 | 37 ft | 2 kts | 148° |
| 2026-05-05 10:00 | -33.93157 | 151.17534 | 37 ft | 2 kts | 160° |
| 2026-05-05 10:00 | -33.93148 | 151.17531 | 37 ft | 0 kts | 168° |
| 2026-05-05 10:00 | -33.93145 | 151.17529 | 37 ft | 0 kts | 168° |
| 2026-05-05 10:03 | -33.93147 | 151.17531 | 37 ft | 0 kts | 168° |
| 2026-05-05 10:03 | -33.93153 | 151.17532 | 37 ft | 1 kts | 168° |
| 2026-05-05 10:03 | -33.93173 | 151.17537 | 37 ft | 3 kts | 167° |
| 2026-05-05 10:04 | -33.93204 | 151.17546 | 37 ft | 5 kts | 167° |
| 2026-05-05 10:04 | -33.93246 | 151.17557 | 37 ft | 7 kts | 166° |
| 2026-05-05 10:04 | -33.93299 | 151.17572 | 37 ft | 8 kts | 168° |
| 2026-05-05 10:04 | -33.93359 | 151.17586 | 37 ft | 7 kts | 171° |
| 2026-05-05 10:05 | -33.93414 | 151.17593 | 37 ft | 8 kts | 178° |
| 2026-05-05 10:05 | -33.93465 | 151.17587 | 37 ft | 7 kts | 182° |
| 2026-05-05 10:05 | -33.93517 | 151.17593 | 37 ft | 8 kts | 168° |
| 2026-05-05 10:05 | -33.93585 | 151.17610 | 37 ft | 11 kts | 166° |
| 2026-05-05 10:06 | -33.93665 | 151.17648 | 37 ft | 13 kts | 157° |
| 2026-05-05 10:06 | -33.93761 | 151.17691 | 37 ft | 15 kts | 165° |
| 2026-05-05 10:06 | -33.93864 | 151.17741 | 37 ft | 16 kts | 139° |
| 2026-05-05 10:06 | -33.93936 | 151.17790 | 37 ft | 10 kts | 163° |
| 2026-05-05 10:07 | -33.93987 | 151.17802 | 37 ft | 12 kts | 173° |
| 2026-05-05 10:07 | -33.94350 | 151.17900 | 37 ft | 18 kts | 169° |
| 2026-05-05 10:08 | -33.94445 | 151.17903 | 37 ft | 12 kts | 194° |
| 2026-05-05 10:08 | -33.94532 | 151.17891 | 37 ft | 10 kts | 169° |
| 2026-05-05 10:08 | -33.94616 | 151.17909 | 37 ft | 13 kts | 169° |
| 2026-05-05 10:08 | -33.94717 | 151.17932 | 37 ft | 15 kts | 169° |
| 2026-05-05 10:09 | -33.94832 | 151.17961 | 37 ft | 17 kts | 168° |
| 2026-05-05 10:09 | -33.94958 | 151.17995 | 37 ft | 19 kts | 167° |
| 2026-05-05 10:09 | -33.95050 | 151.18019 | 37 ft | 11 kts | 165° |
| 2026-05-05 10:09 | -33.95097 | 151.18088 | 37 ft | 11 kts | 90° |
| 2026-05-05 10:10 | -33.95084 | 151.18178 | 37 ft | 11 kts | 79° |
| 2026-05-05 10:10 | -33.95068 | 151.18275 | 37 ft | 12 kts | 79° |
| 2026-05-05 10:10 | -33.95059 | 151.18333 | 37 ft | 5 kts | 79° |
| 2026-05-05 10:10 | -33.95047 | 151.18390 | 37 ft | 7 kts | 75° |
| 2026-05-05 10:11 | -33.95032 | 151.18463 | 37 ft | 9 kts | 76° |
| 2026-05-05 10:11 | -33.95015 | 151.18550 | 37 ft | 11 kts | 77° |
| 2026-05-05 10:11 | -33.94997 | 151.18649 | 37 ft | 12 kts | 80° |
| 2026-05-05 10:11 | -33.94983 | 151.18750 | 37 ft | 11 kts | 80° |
| 2026-05-05 10:12 | -33.95002 | 151.18831 | 37 ft | 10 kts | 156° |
| 2026-05-05 10:12 | -33.95080 | 151.18855 | 37 ft | 12 kts | 168° |
| 2026-05-05 10:12 | -33.95397 | 151.18933 | 37 ft | 89 kts | 169° |
| 2026-05-05 10:12 | -33.96266 | 151.19162 | 57 ft | 160 kts | 170° |
| 2026-05-05 10:13 | -33.97414 | 151.19475 | 752 ft | 172 kts | 162° |
| 2026-05-05 10:13 | -33.98349 | 151.20265 | 1735 ft | 171 kts | 129° |
| 2026-05-05 10:13 | -33.99040 | 151.21425 | 2457 ft | 180 kts | 126° |
| 2026-05-05 10:13 | -33.99778 | 151.22722 | 2962 ft | 198 kts | 126° |
| 2026-05-05 10:14 | -34.00628 | 151.24104 | 3480 ft | 215 kts | 133° |
| 2026-05-05 10:14 | -34.01727 | 151.25417 | 4005 ft | 233 kts | 140° |
| 2026-05-05 10:14 | -34.03015 | 151.26710 | 4542 ft | 251 kts | 142° |
| 2026-05-05 10:14 | -34.04400 | 151.28061 | 4919 ft | 260 kts | 142° |
| 2026-05-05 10:15 | -34.05812 | 151.29436 | 5189 ft | 262 kts | 142° |
| 2026-05-05 10:15 | -34.07257 | 151.30844 | 5631 ft | 271 kts | 142° |
| 2026-05-05 10:15 | -34.08712 | 151.32266 | 6526 ft | 272 kts | 142° |
| 2026-05-05 10:15 | -34.10186 | 151.33711 | 7365 ft | 274 kts | 141° |
| 2026-05-05 10:16 | -34.11396 | 151.35452 | 8117 ft | 280 kts | 116° |
| 2026-05-05 10:16 | -34.11829 | 151.37714 | 8906 ft | 284 kts | 89° |
| 2026-05-05 10:16 | -34.11374 | 151.40028 | 9662 ft | 289 kts | 62° |
| 2026-05-05 10:16 | -34.10154 | 151.41951 | 10411 ft | 292 kts | 46° |
| 2026-05-05 10:17 | -34.08757 | 151.43739 | 11167 ft | 296 kts | 46° |
| 2026-05-05 10:17 | -34.07341 | 151.45532 | 11905 ft | 300 kts | 43° |
| 2026-05-05 10:17 | -34.05648 | 151.47008 | 12607 ft | 303 kts | 25° |
| 2026-05-05 10:17 | -34.03693 | 151.47878 | 13318 ft | 305 kts | 14° |
| 2026-05-05 10:18 | -34.01627 | 151.48544 | 14055 ft | 309 kts | 13° |
| 2026-05-05 10:18 | -33.99543 | 151.49188 | 14836 ft | 311 kts | 13° |
| 2026-05-05 10:18 | -33.97451 | 151.49846 | 15620 ft | 313 kts | 13° |
| 2026-05-05 10:18 | -33.95343 | 151.50522 | 16376 ft | 316 kts | 13° |
| 2026-05-05 10:19 | -33.93219 | 151.51210 | 17134 ft | 318 kts | 13° |
| 2026-05-05 10:19 | -33.91092 | 151.51904 | 17872 ft | 321 kts | 13° |
| 2026-05-05 10:19 | -33.88928 | 151.52612 | 18589 ft | 323 kts | 13° |
| 2026-05-05 10:19 | -33.86756 | 151.53323 | 19332 ft | 325 kts | 13° |
| 2026-05-05 10:20 | -33.84566 | 151.54040 | 20050 ft | 328 kts | 13° |
| 2026-05-05 10:20 | -33.82352 | 151.54764 | 20724 ft | 331 kts | 12° |
| 2026-05-05 10:20 | -33.80156 | 151.55482 | 21374 ft | 333 kts | 12° |
| 2026-05-05 10:20 | -33.77909 | 151.56215 | 22025 ft | 336 kts | 12° |
| 2026-05-05 10:21 | -33.75654 | 151.56950 | 22656 ft | 339 kts | 11° |
| 2026-05-05 10:21 | -33.73373 | 151.57692 | 23277 ft | 341 kts | 11° |
| 2026-05-05 10:21 | -33.71080 | 151.58438 | 23850 ft | 344 kts | 11° |
| 2026-05-05 10:21 | -33.68763 | 151.59195 | 24449 ft | 345 kts | 11° |
| 2026-05-05 10:22 | -33.66465 | 151.60004 | 25044 ft | 349 kts | 14° |
| 2026-05-05 10:22 | -33.64214 | 151.61130 | 25610 ft | 355 kts | 21° |
| 2026-05-05 10:22 | -33.62051 | 151.62607 | 26176 ft | 361 kts | 26° |
| 2026-05-05 10:22 | -33.59933 | 151.64256 | 26729 ft | 363 kts | 27° |
| 2026-05-05 10:23 | -33.57827 | 151.65922 | 27200 ft | 361 kts | 26° |
| 2026-05-05 10:23 | -33.55720 | 151.67577 | 27380 ft | 365 kts | 26° |
| 2026-05-05 10:23 | -33.53579 | 151.69269 | 27699 ft | 370 kts | 26° |
| 2026-05-05 10:23 | -33.51438 | 151.70901 | 28224 ft | 368 kts | 22° |
| 2026-05-05 10:24 | -33.49150 | 151.72298 | 28746 ft | 363 kts | 16° |
| 2026-05-05 10:24 | -33.46823 | 151.73369 | 29235 ft | 359 kts | 10° |
| 2026-05-05 10:24 | -33.44427 | 151.74199 | 29705 ft | 358 kts | 7° |
| 2026-05-05 10:24 | -33.42041 | 151.74968 | 30133 ft | 359 kts | 6° |
| 2026-05-05 10:25 | -33.39622 | 151.75740 | 30509 ft | 363 kts | 6° |
| 2026-05-05 10:25 | -33.37165 | 151.76526 | 30807 ft | 368 kts | 7° |
| 2026-05-05 10:25 | -33.34690 | 151.77324 | 31164 ft | 371 kts | 6° |
| 2026-05-05 10:25 | -33.32171 | 151.78140 | 31546 ft | 373 kts | 6° |
| 2026-05-05 10:26 | -33.29672 | 151.78949 | 31919 ft | 375 kts | 6° |
| 2026-05-05 10:26 | -33.27158 | 151.79764 | 32277 ft | 377 kts | 6° |
| 2026-05-05 10:26 | -33.24630 | 151.80579 | 32622 ft | 380 kts | 6° |
| 2026-05-05 10:26 | -33.22041 | 151.81413 | 32972 ft | 382 kts | 6° |
| 2026-05-05 10:27 | -33.19484 | 151.82239 | 33334 ft | 383 kts | 6° |
| 2026-05-05 10:27 | -33.16928 | 151.83061 | 33671 ft | 385 kts | 5° |
| 2026-05-05 10:27 | -33.14342 | 151.83894 | 33968 ft | 387 kts | 5° |
| 2026-05-05 10:27 | -33.11741 | 151.84729 | 34236 ft | 389 kts | 5° |
| 2026-05-05 10:28 | -33.09103 | 151.85576 | 34506 ft | 391 kts | 5° |
| 2026-05-05 10:28 | -33.06459 | 151.86424 | 34750 ft | 394 kts | 5° |
| 2026-05-05 10:28 | -33.03814 | 151.87273 | 34990 ft | 396 kts | 5° |
| 2026-05-05 10:28 | -33.01150 | 151.88126 | 35238 ft | 398 kts | 6° |
| 2026-05-05 10:29 | -32.98462 | 151.88988 | 35479 ft | 400 kts | 6° |
| 2026-05-05 10:29 | -32.95790 | 151.89844 | 35740 ft | 402 kts | 6° |
| 2026-05-05 10:29 | -32.93048 | 151.90721 | 36022 ft | 404 kts | 6° |
| 2026-05-05 10:29 | -32.90330 | 151.91592 | 36296 ft | 407 kts | 6° |
| 2026-05-05 10:30 | -32.87604 | 151.92464 | 36556 ft | 409 kts | 6° |
| 2026-05-05 10:30 | -32.84843 | 151.93344 | 36855 ft | 411 kts | 6° |
| 2026-05-05 10:30 | -32.82078 | 151.94228 | 37105 ft | 413 kts | 6° |
| 2026-05-05 10:30 | -32.79311 | 151.95113 | 37317 ft | 415 kts | 6° |
| 2026-05-05 10:31 | -32.76512 | 151.96007 | 37531 ft | 418 kts | 6° |
| 2026-05-05 10:31 | -32.73690 | 151.96905 | 37738 ft | 420 kts | 6° |
| 2026-05-05 10:31 | -32.70890 | 151.97798 | 37961 ft | 422 kts | 6° |
| 2026-05-05 10:31 | -32.68023 | 151.98711 | 38174 ft | 424 kts | 6° |
| 2026-05-05 10:32 | -32.65174 | 151.99615 | 38375 ft | 426 kts | 6° |
| 2026-05-05 10:32 | -32.62293 | 152.00531 | 38542 ft | 429 kts | 6° |
| 2026-05-05 10:32 | -32.59402 | 152.01451 | 38740 ft | 431 kts | 6° |
| 2026-05-05 10:32 | -32.56549 | 152.02357 | 38965 ft | 432 kts | 6° |
| 2026-05-05 10:33 | -32.53640 | 152.03281 | 39146 ft | 434 kts | 6° |
| 2026-05-05 10:33 | -32.50696 | 152.04216 | 39164 ft | 436 kts | 6° |
| 2026-05-05 10:33 | -32.44840 | 152.06076 | 39167 ft | 436 kts | 6° |
| 2026-05-05 10:34 | -32.38995 | 152.07924 | 39169 ft | 434 kts | 6° |
| 2026-05-05 10:34 | -32.33170 | 152.09764 | 39167 ft | 435 kts | 6° |
| 2026-05-05 10:35 | -32.27312 | 152.11614 | 39169 ft | 434 kts | 5° |
| 2026-05-05 10:35 | -32.21507 | 152.13441 | 39166 ft | 435 kts | 5° |
| 2026-05-05 10:36 | -32.15660 | 152.15283 | 39166 ft | 433 kts | 5° |
| 2026-05-05 10:36 | -32.09846 | 152.17110 | 39164 ft | 432 kts | 5° |
| 2026-05-05 10:37 | -32.04061 | 152.18924 | 39170 ft | 431 kts | 5° |
| 2026-05-05 10:37 | -31.98237 | 152.20749 | 39165 ft | 433 kts | 5° |
| 2026-05-05 10:38 | -31.92439 | 152.22557 | 39162 ft | 433 kts | 5° |
| 2026-05-05 10:38 | -31.86595 | 152.24387 | 39179 ft | 432 kts | 5° |
| 2026-05-05 10:39 | -31.80813 | 152.26193 | 39169 ft | 431 kts | 5° |
| 2026-05-05 10:39 | -31.75004 | 152.28005 | 39164 ft | 431 kts | 5° |
| 2026-05-05 10:40 | -31.69212 | 152.29808 | 39168 ft | 432 kts | 5° |
| 2026-05-05 10:40 | -31.63383 | 152.31622 | 39165 ft | 432 kts | 4° |
| 2026-05-05 10:41 | -31.57579 | 152.33424 | 39156 ft | 430 kts | 5° |
| 2026-05-05 10:41 | -31.51795 | 152.35219 | 39162 ft | 430 kts | 5° |
| 2026-05-05 10:42 | -31.43121 | 152.37907 | 39169 ft | 431 kts | 4° |
| 2026-05-05 10:43 | -31.37337 | 152.39694 | 39169 ft | 429 kts | 4° |
| 2026-05-05 10:43 | -31.31551 | 152.41479 | 39168 ft | 429 kts | 4° |
| 2026-05-05 10:44 | -31.25809 | 152.43251 | 39172 ft | 428 kts | 4° |
| 2026-05-05 10:44 | -31.20042 | 152.45027 | 39175 ft | 428 kts | 4° |
| 2026-05-05 10:45 | -31.14293 | 152.46797 | 39176 ft | 428 kts | 4° |
| 2026-05-05 10:45 | -31.08528 | 152.48569 | 39175 ft | 427 kts | 4° |
| 2026-05-05 10:46 | -31.02820 | 152.50319 | 39175 ft | 428 kts | 4° |
| 2026-05-05 10:46 | -30.97073 | 152.52078 | 39176 ft | 427 kts | 4° |
| 2026-05-05 10:47 | -30.91296 | 152.53847 | 39168 ft | 427 kts | 4° |
| 2026-05-05 10:47 | -30.85568 | 152.55595 | 39172 ft | 427 kts | 4° |
| 2026-05-05 10:48 | -30.79793 | 152.57385 | 39169 ft | 430 kts | 5° |
| 2026-05-05 10:48 | -30.74108 | 152.59444 | 39168 ft | 429 kts | 6° |
| 2026-05-05 10:49 | -30.68400 | 152.61513 | 39166 ft | 431 kts | 6° |
| 2026-05-05 10:49 | -30.62651 | 152.63594 | 39165 ft | 431 kts | 6° |
| 2026-05-05 10:50 | -30.56922 | 152.65668 | 39162 ft | 429 kts | 6° |
| 2026-05-05 10:50 | -30.51231 | 152.67728 | 39167 ft | 429 kts | 6° |
| 2026-05-05 10:51 | -30.45553 | 152.69777 | 39165 ft | 427 kts | 5° |
| 2026-05-05 10:51 | -30.39883 | 152.71822 | 39167 ft | 427 kts | 5° |
| 2026-05-05 10:51 | -30.37046 | 152.72844 | 38944 ft | 428 kts | 5° |
| 2026-05-05 10:52 | -30.34208 | 152.73869 | 38659 ft | 424 kts | 5° |
| 2026-05-05 10:52 | -30.31401 | 152.74884 | 38401 ft | 422 kts | 5° |
| 2026-05-05 10:52 | -30.28596 | 152.75891 | 38148 ft | 419 kts | 5° |
| 2026-05-05 10:52 | -30.25841 | 152.76883 | 37899 ft | 416 kts | 5° |
| 2026-05-05 10:53 | -30.23097 | 152.77869 | 37650 ft | 412 kts | 5° |
| 2026-05-05 10:53 | -30.20354 | 152.78854 | 37398 ft | 410 kts | 5° |
| 2026-05-05 10:53 | -30.17652 | 152.79823 | 37150 ft | 408 kts | 5° |
| 2026-05-05 10:53 | -30.14948 | 152.80792 | 36902 ft | 406 kts | 5° |
| 2026-05-05 10:54 | -30.12257 | 152.81755 | 36653 ft | 403 kts | 5° |
| 2026-05-05 10:54 | -30.09556 | 152.82721 | 36399 ft | 400 kts | 5° |
| 2026-05-05 10:54 | -30.06911 | 152.83668 | 36150 ft | 398 kts | 5° |
| 2026-05-05 10:54 | -30.04293 | 152.84607 | 35904 ft | 395 kts | 5° |
| 2026-05-05 10:55 | -30.01657 | 152.85548 | 35651 ft | 393 kts | 5° |
| 2026-05-05 10:55 | -29.99067 | 152.86472 | 35403 ft | 392 kts | 5° |
| 2026-05-05 10:55 | -29.96486 | 152.87395 | 35153 ft | 389 kts | 5° |
| 2026-05-05 10:55 | -29.93883 | 152.88324 | 34902 ft | 386 kts | 5° |
| 2026-05-05 10:56 | -29.91330 | 152.89235 | 34653 ft | 384 kts | 5° |
| 2026-05-05 10:56 | -29.88777 | 152.90147 | 34403 ft | 382 kts | 5° |
| 2026-05-05 10:56 | -29.86257 | 152.91048 | 34156 ft | 381 kts | 5° |
| 2026-05-05 10:56 | -29.83743 | 152.91943 | 33905 ft | 378 kts | 5° |
| 2026-05-05 10:57 | -29.81224 | 152.92841 | 33653 ft | 376 kts | 5° |
| 2026-05-05 10:57 | -29.78733 | 152.93726 | 33396 ft | 375 kts | 5° |
| 2026-05-05 10:57 | -29.76258 | 152.94608 | 33133 ft | 374 kts | 5° |
| 2026-05-05 10:57 | -29.73766 | 152.95494 | 32869 ft | 372 kts | 5° |
| 2026-05-05 10:58 | -29.71298 | 152.96373 | 32611 ft | 368 kts | 5° |
| 2026-05-05 10:58 | -29.68881 | 152.97234 | 32361 ft | 367 kts | 5° |
| 2026-05-05 10:58 | -29.66447 | 152.98096 | 32098 ft | 364 kts | 5° |
| 2026-05-05 10:58 | -29.64007 | 152.98959 | 31836 ft | 364 kts | 5° |
| 2026-05-05 10:59 | -29.61592 | 152.99814 | 31579 ft | 363 kts | 5° |
| 2026-05-05 10:59 | -29.59191 | 153.00665 | 31321 ft | 362 kts | 5° |
| 2026-05-05 10:59 | -29.56798 | 153.01512 | 31061 ft | 362 kts | 5° |
| 2026-05-05 10:59 | -29.54374 | 153.02370 | 30790 ft | 361 kts | 4° |
| 2026-05-05 11:00 | -29.51979 | 153.03215 | 30538 ft | 360 kts | 5° |
| 2026-05-05 11:00 | -29.49606 | 153.04054 | 30284 ft | 358 kts | 4° |
| 2026-05-05 11:00 | -29.47217 | 153.04898 | 30026 ft | 359 kts | 5° |
| 2026-05-05 11:00 | -29.44836 | 153.05739 | 29763 ft | 358 kts | 5° |
| 2026-05-05 11:01 | -29.42457 | 153.06580 | 29497 ft | 355 kts | 5° |
| 2026-05-05 11:01 | -29.40114 | 153.07407 | 29247 ft | 356 kts | 5° |
| 2026-05-05 11:01 | -29.37751 | 153.08237 | 28998 ft | 355 kts | 5° |
| 2026-05-05 11:01 | -29.35368 | 153.09076 | 28747 ft | 354 kts | 5° |
| 2026-05-05 11:02 | -29.33036 | 153.09898 | 28496 ft | 353 kts | 6° |
| 2026-05-05 11:02 | -29.30667 | 153.10733 | 28240 ft | 352 kts | 6° |
| 2026-05-05 11:02 | -29.28343 | 153.11552 | 27995 ft | 351 kts | 6° |
| 2026-05-05 11:02 | -29.26026 | 153.12369 | 27745 ft | 351 kts | 6° |
| 2026-05-05 11:03 | -29.23699 | 153.13187 | 27495 ft | 350 kts | 6° |
| 2026-05-05 11:03 | -29.21364 | 153.14009 | 27244 ft | 349 kts | 7° |
| 2026-05-05 11:03 | -29.19025 | 153.14831 | 26994 ft | 348 kts | 7° |
| 2026-05-05 11:03 | -29.16736 | 153.15637 | 26747 ft | 348 kts | 7° |
| 2026-05-05 11:04 | -29.14419 | 153.16452 | 26495 ft | 347 kts | 7° |
| 2026-05-05 11:04 | -29.12082 | 153.17273 | 26245 ft | 347 kts | 7° |
| 2026-05-05 11:04 | -29.09796 | 153.18076 | 26001 ft | 346 kts | 7° |
| 2026-05-05 11:04 | -29.07482 | 153.18886 | 25758 ft | 346 kts | 8° |
| 2026-05-05 11:05 | -29.05181 | 153.19693 | 25506 ft | 346 kts | 8° |
| 2026-05-05 11:05 | -29.02881 | 153.20503 | 25252 ft | 344 kts | 8° |
| 2026-05-05 11:05 | -29.00604 | 153.21301 | 25005 ft | 343 kts | 8° |
| 2026-05-05 11:05 | -28.98305 | 153.22107 | 24755 ft | 344 kts | 8° |
| 2026-05-05 11:06 | -28.96035 | 153.22900 | 24514 ft | 343 kts | 8° |
| 2026-05-05 11:06 | -28.93760 | 153.23697 | 24269 ft | 341 kts | 8° |
| 2026-05-05 11:06 | -28.91496 | 153.24489 | 24022 ft | 341 kts | 8° |
| 2026-05-05 11:06 | -28.89201 | 153.25290 | 23770 ft | 341 kts | 9° |
| 2026-05-05 11:07 | -28.86953 | 153.26076 | 23526 ft | 339 kts | 9° |
| 2026-05-05 11:07 | -28.84694 | 153.26866 | 23278 ft | 339 kts | 9° |
| 2026-05-05 11:07 | -28.82425 | 153.27657 | 23034 ft | 338 kts | 9° |
| 2026-05-05 11:07 | -28.80177 | 153.28441 | 22782 ft | 337 kts | 9° |
| 2026-05-05 11:08 | -28.77939 | 153.29224 | 22536 ft | 336 kts | 9° |
| 2026-05-05 11:08 | -28.75709 | 153.30002 | 22289 ft | 334 kts | 9° |
| 2026-05-05 11:08 | -28.73459 | 153.30788 | 22043 ft | 333 kts | 10° |
| 2026-05-05 11:08 | -28.71242 | 153.31558 | 21797 ft | 332 kts | 9° |
| 2026-05-05 11:09 | -28.69038 | 153.32326 | 21553 ft | 330 kts | 10° |
| 2026-05-05 11:09 | -28.66864 | 153.33086 | 21311 ft | 329 kts | 10° |
| 2026-05-05 11:09 | -28.64675 | 153.33847 | 21062 ft | 327 kts | 10° |
| 2026-05-05 11:09 | -28.62504 | 153.34601 | 20826 ft | 326 kts | 10° |
| 2026-05-05 11:10 | -28.60311 | 153.35364 | 20564 ft | 325 kts | 10° |
| 2026-05-05 11:10 | -28.58171 | 153.36107 | 20316 ft | 324 kts | 10° |
| 2026-05-05 11:10 | -28.56011 | 153.36858 | 20078 ft | 321 kts | 10° |
| 2026-05-05 11:10 | -28.53875 | 153.37599 | 19828 ft | 320 kts | 10° |
| 2026-05-05 11:11 | -28.51732 | 153.38342 | 19582 ft | 319 kts | 10° |
| 2026-05-05 11:11 | -28.49625 | 153.39072 | 19345 ft | 318 kts | 10° |
| 2026-05-05 11:11 | -28.47490 | 153.39813 | 19096 ft | 315 kts | 11° |
| 2026-05-05 11:11 | -28.45394 | 153.40541 | 18849 ft | 314 kts | 11° |
| 2026-05-05 11:12 | -28.43305 | 153.41264 | 18607 ft | 313 kts | 11° |
| 2026-05-05 11:12 | -28.41227 | 153.41985 | 18370 ft | 310 kts | 11° |
| 2026-05-05 11:12 | -28.39182 | 153.42691 | 18129 ft | 310 kts | 11° |
| 2026-05-05 11:12 | -28.37117 | 153.43405 | 17884 ft | 308 kts | 11° |
| 2026-05-05 11:13 | -28.35053 | 153.44119 | 17638 ft | 308 kts | 11° |
| 2026-05-05 11:13 | -28.33004 | 153.44826 | 17403 ft | 307 kts | 11° |
| 2026-05-05 11:13 | -28.30979 | 153.45528 | 17160 ft | 306 kts | 11° |
| 2026-05-05 11:13 | -28.28942 | 153.46231 | 16866 ft | 303 kts | 12° |
| 2026-05-05 11:14 | -28.26916 | 153.46928 | 16622 ft | 304 kts | 12° |
| 2026-05-05 11:14 | -28.24883 | 153.47630 | 16383 ft | 303 kts | 12° |
| 2026-05-05 11:14 | -28.22863 | 153.48329 | 16143 ft | 302 kts | 12° |
| 2026-05-05 11:14 | -28.20863 | 153.49019 | 15900 ft | 301 kts | 12° |
| 2026-05-05 11:15 | -28.18852 | 153.49703 | 15659 ft | 300 kts | 9° |
| 2026-05-05 11:15 | -28.16828 | 153.50058 | 15419 ft | 294 kts | 358° |
| 2026-05-05 11:15 | -28.14791 | 153.49957 | 15177 ft | 290 kts | 348° |
| 2026-05-05 11:15 | -28.12792 | 153.49574 | 14939 ft | 290 kts | 347° |
| 2026-05-05 11:16 | -28.10815 | 153.49161 | 14699 ft | 289 kts | 347° |
| 2026-05-05 11:16 | -28.08824 | 153.48743 | 14495 ft | 291 kts | 347° |
| 2026-05-05 11:16 | -28.06832 | 153.48323 | 14258 ft | 289 kts | 347° |
| 2026-05-05 11:16 | -28.04862 | 153.47910 | 14016 ft | 289 kts | 347° |
| 2026-05-05 11:17 | -28.02874 | 153.47498 | 13768 ft | 287 kts | 347° |
| 2026-05-05 11:17 | -28.00918 | 153.47092 | 13532 ft | 286 kts | 347° |
| 2026-05-05 11:17 | -27.98954 | 153.46684 | 13301 ft | 286 kts | 348° |
| 2026-05-05 11:17 | -27.97001 | 153.46278 | 13061 ft | 286 kts | 348° |
| 2026-05-05 11:18 | -27.95051 | 153.45874 | 12836 ft | 286 kts | 348° |
| 2026-05-05 11:18 | -27.93082 | 153.45465 | 12600 ft | 287 kts | 348° |
| 2026-05-05 11:18 | -27.91114 | 153.45058 | 12364 ft | 287 kts | 348° |
| 2026-05-05 11:18 | -27.89134 | 153.44650 | 12114 ft | 286 kts | 348° |
| 2026-05-05 11:19 | -27.87174 | 153.44244 | 11867 ft | 285 kts | 348° |
| 2026-05-05 11:19 | -27.85231 | 153.43842 | 11632 ft | 286 kts | 349° |
| 2026-05-05 11:19 | -27.83270 | 153.43436 | 11392 ft | 286 kts | 349° |
| 2026-05-05 11:19 | -27.81320 | 153.43034 | 11146 ft | 284 kts | 349° |
| 2026-05-05 11:20 | -27.79363 | 153.42630 | 10912 ft | 284 kts | 349° |
| 2026-05-05 11:20 | -27.77400 | 153.42224 | 10672 ft | 285 kts | 349° |
| 2026-05-05 11:20 | -27.75462 | 153.41824 | 10443 ft | 285 kts | 350° |
| 2026-05-05 11:20 | -27.73490 | 153.41419 | 10205 ft | 285 kts | 350° |
| 2026-05-05 11:21 | -27.71551 | 153.41017 | 9987 ft | 284 kts | 351° |
| 2026-05-05 11:21 | -27.69586 | 153.40614 | 9867 ft | 285 kts | 351° |
| 2026-05-05 11:21 | -27.67650 | 153.40218 | 9751 ft | 286 kts | 351° |
| 2026-05-05 11:21 | -27.65669 | 153.39810 | 9638 ft | 287 kts | 352° |
| 2026-05-05 11:22 | -27.63687 | 153.39545 | 9514 ft | 286 kts | 358° |
| 2026-05-05 11:22 | -27.61692 | 153.39520 | 9386 ft | 285 kts | 3° |
| 2026-05-05 11:22 | -27.59715 | 153.39604 | 9256 ft | 285 kts | 4° |
| 2026-05-05 11:22 | -27.57746 | 153.39699 | 9125 ft | 284 kts | 4° |
| 2026-05-05 11:23 | -27.55751 | 153.39795 | 9083 ft | 284 kts | 4° |
| 2026-05-05 11:23 | -27.53768 | 153.39890 | 9022 ft | 284 kts | 4° |
| 2026-05-05 11:23 | -27.51793 | 153.39984 | 9005 ft | 284 kts | 4° |
| 2026-05-05 11:23 | -27.49810 | 153.40074 | 8996 ft | 285 kts | 4° |
| 2026-05-05 11:24 | -27.47818 | 153.40169 | 8986 ft | 285 kts | 4° |
| 2026-05-05 11:24 | -27.45850 | 153.40257 | 8980 ft | 285 kts | 4° |
| 2026-05-05 11:24 | -27.43846 | 153.40349 | 8977 ft | 285 kts | 4° |
| 2026-05-05 11:24 | -27.41866 | 153.40439 | 8977 ft | 284 kts | 4° |
| 2026-05-05 11:25 | -27.39906 | 153.40527 | 8975 ft | 284 kts | 4° |
| 2026-05-05 11:25 | -27.37928 | 153.40616 | 8979 ft | 282 kts | 4° |
| 2026-05-05 11:25 | -27.35991 | 153.40707 | 8903 ft | 274 kts | 4° |
| 2026-05-05 11:25 | -27.34098 | 153.40794 | 8606 ft | 274 kts | 4° |
| 2026-05-05 11:26 | -27.32207 | 153.40878 | 8293 ft | 264 kts | 4° |
| 2026-05-05 11:26 | -27.30405 | 153.40959 | 7995 ft | 251 kts | 4° |
| 2026-05-05 11:26 | -27.28713 | 153.41036 | 7726 ft | 238 kts | 4° |
| 2026-05-05 11:26 | -27.27085 | 153.41107 | 7465 ft | 230 kts | 4° |
| 2026-05-05 11:27 | -27.25494 | 153.41182 | 7221 ft | 223 kts | 4° |
| 2026-05-05 11:27 | -27.23979 | 153.41252 | 6989 ft | 216 kts | 4° |
| 2026-05-05 11:27 | -27.22480 | 153.41319 | 6756 ft | 210 kts | 4° |
| 2026-05-05 11:27 | -27.21035 | 153.41385 | 6539 ft | 203 kts | 3° |
| 2026-05-05 11:28 | -27.19656 | 153.41194 | 6326 ft | 197 kts | 343° |
| 2026-05-05 11:28 | -27.18460 | 153.40505 | 6101 ft | 191 kts | 324° |
| 2026-05-05 11:28 | -27.17442 | 153.39586 | 5904 ft | 184 kts | 320° |
| 2026-05-05 11:28 | -27.16489 | 153.38664 | 5716 ft | 181 kts | 319° |
| 2026-05-05 11:29 | -27.15519 | 153.37726 | 5571 ft | 183 kts | 320° |
| 2026-05-05 11:29 | -27.14549 | 153.36798 | 5444 ft | 183 kts | 320° |
| 2026-05-05 11:29 | -27.13582 | 153.35861 | 5275 ft | 183 kts | 311° |
| 2026-05-05 11:29 | -27.12947 | 153.34660 | 5072 ft | 181 kts | 284° |
| 2026-05-05 11:30 | -27.12863 | 153.33273 | 4944 ft | 178 kts | 257° |
| 2026-05-05 11:30 | -27.13268 | 153.31988 | 4867 ft | 176 kts | 243° |
| 2026-05-05 11:30 | -27.13811 | 153.30754 | 4768 ft | 175 kts | 241° |
| 2026-05-05 11:30 | -27.14363 | 153.29527 | 4666 ft | 175 kts | 240° |
| 2026-05-05 11:31 | -27.14902 | 153.28310 | 4570 ft | 175 kts | 242° |
| 2026-05-05 11:31 | -27.15433 | 153.27080 | 4471 ft | 175 kts | 241° |
| 2026-05-05 11:31 | -27.16025 | 153.25879 | 4371 ft | 172 kts | 226° |
| 2026-05-05 11:31 | -27.16935 | 153.25063 | 4268 ft | 168 kts | 207° |
| 2026-05-05 11:32 | -27.17977 | 153.24457 | 4178 ft | 168 kts | 203° |
| 2026-05-05 11:32 | -27.19037 | 153.23895 | 4002 ft | 168 kts | 202° |
| 2026-05-05 11:32 | -27.20096 | 153.23335 | 3763 ft | 167 kts | 202° |
| 2026-05-05 11:32 | -27.21143 | 153.22768 | 3528 ft | 166 kts | 202° |
| 2026-05-05 11:33 | -27.22185 | 153.22188 | 3292 ft | 166 kts | 203° |
| 2026-05-05 11:33 | -27.23211 | 153.21606 | 3064 ft | 166 kts | 204° |
| 2026-05-05 11:33 | -27.24238 | 153.21017 | 2834 ft | 165 kts | 203° |
| 2026-05-05 11:33 | -27.25272 | 153.20424 | 2606 ft | 165 kts | 204° |
| 2026-05-05 11:34 | -27.26293 | 153.19835 | 2388 ft | 165 kts | 203° |
| 2026-05-05 11:34 | -27.27322 | 153.19243 | 2177 ft | 165 kts | 204° |
| 2026-05-05 11:34 | -27.28341 | 153.18657 | 1978 ft | 162 kts | 203° |
| 2026-05-05 11:34 | -27.29333 | 153.18086 | 1766 ft | 157 kts | 203° |
| 2026-05-05 11:35 | -27.30281 | 153.17543 | 1563 ft | 152 kts | 204° |
| 2026-05-05 11:35 | -27.31215 | 153.17007 | 1368 ft | 147 kts | 204° |
| 2026-05-05 11:35 | -27.32127 | 153.16499 | 1183 ft | 143 kts | 202° |
| 2026-05-05 11:35 | -27.33026 | 153.16036 | 963 ft | 140 kts | 201° |
| 2026-05-05 11:36 | -27.33916 | 153.15561 | 644 ft | 144 kts | 210° |
| 2026-05-05 11:36 | -27.34819 | 153.14925 | 504 ft | 153 kts | 206° |
| 2026-05-05 11:36 | -27.35774 | 153.14394 | 245 ft | 153 kts | 205° |
| 2026-05-05 11:36 | -27.36751 | 153.13846 | 155 ft | 160 kts | 206° |
| 2026-05-05 11:37 | -27.37752 | 153.13266 | 72 ft | 165 kts | 204° |
| 2026-05-05 11:37 | -27.38746 | 153.12691 | 33 ft | 150 kts | 205° |
| 2026-05-05 11:37 | -27.39561 | 153.12257 | 27 ft | 93 kts | 195° |
| 2026-05-05 11:37 | -27.39981 | 153.12032 | 28 ft | 35 kts | 206° |